Hlavní strana
METAR-TAF:

METAR-TAF

Letiště :

Letiště Oslo

Oslo, Norsko

zeměpisná šířka: 60-12N, zeměpisná délka: 011-05E, výška: 208 m

Aktuální stav počasí

Zpráva byla vytvořena před 22 minutami, v 22:20 UTC
vítr z různých směrů 1 kt
Teplota 1°C
Vlhkost vzduchu 51%
Tlak 1013 hPa
Viditelnost 10 km a více
Žádná oblačnost pod 1500 m, nevyskytují se cumulonimby.

METAR: ENGM 252220Z VRB01KT CAVOK 01/M08 Q1013

Čas: 23:42 (22:42 UTC)

Předpověď počasí

Předpověď platná od 25 v 18 UTC do 26 v 18 UTC
Severozápadní vítr 8 kt
Viditelnost 10 km a více
Žádná oblačnost pod 1500 m, nevyskytují se cumulonimby.
Změna
od 26 v 13 UTC do 26 v 15 UTC
Jižní vítr 10 kt

TAF: ENGM 2518/2618 32008KT CAVOK BECMG 2613/2615 18010KT

Stav a předpovědi počasí z více než 4 000 letišť (zprávy METAR a TAF).

Červené a žluté tečky na mapě představují dostupné meteorologické stanice.

Když kurzor umístíte na tečku, zobrazí se název stanice.

Pak kliknutím zobrazíte stav a předpověď počasí.

Chcete-li změnit mapu, kliknutím na zelené tlačítko se znaménkem +mapu přiblížíte, kliknutím na zelené tlačítko se znaménkem – mapu oddálíte a kliknutím na zelené šipky přejdete na sousední mapy.


METAR-TAF: